Terminal Aerodrome Forecast
Issued by NWS Portland, OR

Home | Current Version | Previous Version | Text Only | Print | Product List | Glossary On
Versions: 1 2 3 4 5 6 7 8 9 10 11 12 13 14 15 16 17 18 19
000
FTUS46 KPQR 182343
TAFEUG
TAF
KEUG 182343Z 1900/1924 VRB03KT P6SM SCT008
     FM190200 00000KT 5SM BR BKN008
     FM190300 00000KT 1SM BR BKN004
     FM190400 00000KT 1/2SM FG VV002
     FM191200 18005KT 4SM BR OVC003
     FM191800 18010KT P6SM OVC007
     FM192100 18012G18KT P6SM SCT007 OVC050=

USA.gov is the U.S. government's official web portal to all federal, state and local government web resources and services.